createdAt,value
2023-05-21T00:04:19.976Z,2.78
2023-05-21T00:09:41.925Z,1.77
2023-05-21T00:15:04.689Z,2.70
2023-05-21T00:20:27.309Z,2.53
2023-05-21T00:25:50.686Z,1.80
2023-05-21T00:31:12.583Z,3.70
2023-05-21T00:36:34.946Z,1.33
2023-05-21T00:41:57.295Z,1.70
2023-05-21T00:47:19.144Z,2.40
2023-05-21T00:52:45.761Z,2.38
2023-05-21T00:58:08.513Z,2.35
2023-05-21T01:03:31.080Z,2.22
2023-05-21T01:08:53.015Z,1.63
2023-05-21T01:14:16.361Z,2.60
2023-05-21T01:19:38.332Z,1.30
2023-05-21T01:25:02.994Z,1.95
2023-05-21T01:30:25.498Z,1.80
2023-05-21T01:36:14.299Z,2.05
2023-05-21T01:41:41.949Z,2.40
2023-05-21T01:47:05.416Z,2.30
2023-05-21T01:52:27.416Z,2.65
2023-05-21T01:57:49.238Z,1.67
2023-05-21T02:03:12.151Z,3.83
2023-05-21T02:08:34.001Z,2.40
2023-05-21T02:13:57.670Z,2.08
2023-05-21T02:19:19.589Z,2.65
2023-05-21T02:24:41.594Z,2.38
2023-05-21T02:30:05.768Z,1.98
2023-05-21T02:35:27.752Z,1.75
2023-05-21T02:40:53.684Z,1.67
2023-05-21T02:46:15.632Z,2.33
2023-05-21T02:51:37.484Z,2.28
2023-05-21T02:56:59.396Z,2.97
2023-05-21T03:02:21.359Z,2.97
2023-05-21T03:07:43.852Z,3.75
2023-05-21T03:13:09.535Z,2.60
2023-05-21T03:18:31.708Z,5.50
2023-05-21T03:23:58.859Z,3.60
2023-05-21T03:29:21.025Z,2.15
2023-05-21T03:34:42.960Z,2.75
2023-05-21T03:40:06.242Z,2.55
2023-05-21T03:45:28.133Z,2.70
2023-05-21T03:50:50.458Z,3.85
2023-05-21T03:56:12.774Z,1.83
2023-05-21T04:01:35.196Z,1.83
2023-05-21T04:06:57.005Z,2.00
2023-05-21T04:12:20.549Z,2.20
2023-05-21T04:17:42.430Z,2.20
2023-05-21T04:23:04.306Z,2.20
2023-05-21T04:28:29.044Z,1.70
2023-05-21T04:33:50.999Z,2.60
2023-05-21T04:39:12.849Z,3.15
2023-05-21T04:44:34.692Z,3.33
2023-05-21T04:49:56.656Z,3.47
2023-05-21T04:55:19.349Z,2.75
2023-05-21T05:00:42.592Z,2.03
2023-05-21T05:06:04.905Z,3.50
2023-05-21T05:11:27.026Z,2.10
2023-05-21T05:16:48.930Z,2.10
2023-05-21T05:22:13.355Z,3.67
2023-05-21T05:27:37.708Z,2.25
2023-05-21T05:33:00.414Z,2.33
2023-05-21T05:38:22.423Z,3.20
2023-05-21T05:43:44.336Z,2.72
2023-05-21T05:49:06.196Z,2.58
2023-05-21T05:54:28.266Z,2.20
2023-05-21T05:59:50.201Z,3.40
2023-05-21T06:05:12.085Z,4.07
2023-05-21T06:10:33.904Z,5.05
2023-05-21T06:15:55.872Z,1.90
2023-05-21T06:21:17.672Z,2.60
2023-05-21T06:26:39.698Z,5.53
2023-05-21T06:32:01.975Z,4.03
2023-05-21T06:37:25.916Z,8.45
2023-05-21T06:42:48.558Z,3.90
2023-05-21T06:48:10.446Z,6.00
2023-05-21T06:53:32.310Z,7.45
2023-05-21T06:58:54.807Z,8.02
2023-05-21T07:04:16.640Z,4.22
2023-05-21T07:09:38.532Z,3.28
2023-05-21T07:15:00.419Z,3.92
2023-05-21T07:20:22.341Z,3.92
2023-05-21T07:25:44.208Z,8.82
2023-05-21T07:31:06.329Z,9.10
2023-05-21T07:36:28.223Z,6.78
2023-05-21T07:41:50.022Z,6.25
2023-05-21T07:47:11.918Z,4.25
2023-05-21T07:52:33.965Z,3.17
2023-05-21T07:57:57.097Z,7.43
2023-05-21T08:03:19.455Z,8.13
2023-05-21T08:08:41.436Z,11.73
2023-05-21T08:14:03.304Z,4.35
2023-05-21T08:19:25.176Z,6.20
2023-05-21T08:24:47.037Z,6.82
2023-05-21T08:30:11.792Z,8.27
2023-05-21T08:35:33.682Z,8.63
2023-05-21T08:40:56.191Z,6.75
2023-05-21T08:46:21.968Z,10.80
2023-05-21T08:51:47.644Z,6.97
2023-05-21T08:57:10.329Z,6.90
2023-05-21T09:02:35.493Z,9.02
2023-05-21T09:08:06.881Z,10.10
2023-05-21T09:13:32.456Z,8.73
2023-05-21T09:24:16.357Z,5.95
2023-05-21T09:29:38.160Z,8.73
2023-05-21T09:35:08.158Z,9.90
2023-05-21T09:40:30.004Z,11.52
2023-05-21T09:45:54.180Z,6.82
2023-05-21T09:51:17.699Z,9.50
2023-05-21T09:56:40.108Z,10.95
2023-05-21T10:02:02.706Z,8.10
2023-05-21T10:07:27.374Z,15.93
2023-05-21T10:12:55.231Z,12.33
2023-05-21T10:18:19.403Z,10.68
2023-05-21T10:23:43.216Z,15.25
2023-05-21T10:29:05.200Z,14.07
2023-05-21T10:34:28.583Z,9.38
2023-05-21T10:39:53.414Z,17.77
2023-05-21T10:45:34.787Z,16.00
2023-05-21T10:51:08.781Z,10.05
2023-05-21T10:56:46.928Z,10.63
2023-05-21T11:02:11.707Z,12.95
2023-05-21T11:07:58.394Z,7.33
2023-05-21T11:13:21.998Z,11.80
2023-05-21T11:18:46.587Z,5.40
2023-05-21T11:24:11.042Z,7.67
2023-05-21T11:29:55.947Z,13.35
2023-05-21T11:35:17.776Z,7.38
2023-05-21T11:40:54.044Z,7.75
2023-05-21T11:46:16.048Z,7.80
2023-05-21T11:51:38.023Z,7.07
2023-05-21T11:57:03.852Z,7.13
2023-05-21T12:02:29.789Z,7.60
2023-05-21T12:07:52.170Z,9.65
2023-05-21T12:13:15.361Z,8.02
2023-05-21T12:18:37.503Z,9.75
2023-05-21T12:23:59.899Z,10.55
2023-05-21T12:29:23.852Z,8.48
2023-05-21T12:34:46.362Z,7.05
2023-05-21T12:40:09.151Z,9.82
2023-05-21T12:45:32.674Z,7.38
2023-05-21T12:50:54.515Z,8.88
2023-05-21T12:56:16.638Z,7.45
2023-05-21T13:01:38.513Z,9.20
2023-05-21T13:07:01.057Z,12.30
2023-05-21T13:12:26.280Z,10.40
2023-05-21T13:17:49.877Z,9.45
2023-05-21T13:23:12.532Z,9.25
2023-05-21T13:28:34.383Z,9.07
2023-05-21T13:33:56.254Z,8.40
2023-05-21T13:39:18.188Z,8.57
2023-05-21T13:44:40.041Z,8.13
2023-05-21T13:50:02.016Z,8.30
2023-05-21T13:55:23.935Z,10.80
2023-05-21T14:00:45.811Z,9.70
2023-05-21T14:06:08.609Z,11.20
2023-05-21T14:11:31.788Z,8.82
2023-05-21T14:16:53.776Z,11.38
2023-05-21T14:22:15.798Z,10.75
2023-05-21T14:27:38.437Z,9.63
2023-05-21T14:33:00.546Z,10.07
2023-05-21T14:38:22.749Z,8.90
2023-05-21T14:43:44.576Z,8.80
2023-05-21T14:49:06.452Z,9.68
2023-05-21T14:54:28.314Z,9.30
2023-05-21T14:59:50.144Z,8.93
2023-05-21T15:05:12.036Z,8.57
2023-05-21T15:10:33.879Z,9.43
2023-05-21T15:15:55.879Z,9.27
2023-05-21T15:21:17.787Z,9.50
2023-05-21T15:26:39.611Z,10.00
2023-05-21T15:32:05.294Z,7.82
2023-05-21T15:37:27.126Z,9.48
2023-05-21T15:42:49.085Z,10.30
2023-05-21T15:48:12.730Z,8.18
2023-05-21T15:53:34.628Z,10.98
2023-05-21T15:58:58.829Z,9.05
2023-05-21T16:04:20.751Z,8.82
2023-05-21T16:09:42.807Z,8.93
2023-05-21T16:15:05.688Z,8.93
2023-05-21T16:20:27.530Z,9.25
2023-05-21T16:25:49.462Z,10.25
2023-05-21T16:31:12.878Z,11.55
2023-05-21T16:36:35.648Z,27.73
2023-05-21T16:42:00.007Z,19.73
2023-05-21T16:47:21.941Z,29.40
2023-05-21T16:52:43.920Z,43.45
2023-05-21T16:58:06.669Z,58.80
2023-05-21T17:03:29.779Z,65.60
2023-05-21T17:08:51.692Z,62.65
2023-05-21T17:14:20.283Z,67.03
2023-05-21T17:19:48.773Z,60.93
2023-05-21T17:25:10.987Z,50.10
2023-05-21T17:30:32.911Z,47.03
2023-05-21T17:35:57.384Z,35.63
2023-05-21T17:41:19.372Z,41.05
2023-05-21T17:46:41.306Z,31.30
2023-05-21T17:52:04.773Z,33.97
2023-05-21T17:57:26.715Z,34.60
2023-05-21T18:02:48.584Z,33.42
2023-05-21T18:08:10.813Z,24.42
2023-05-21T18:13:32.729Z,26.77
2023-05-21T18:18:54.563Z,24.60
2023-05-21T18:24:16.556Z,31.15
2023-05-21T18:29:38.505Z,22.58
2023-05-21T18:35:00.762Z,22.40
2023-05-21T18:40:23.311Z,22.65
2023-05-21T18:45:46.554Z,22.70
2023-05-21T18:51:08.475Z,37.22
2023-05-21T18:56:30.581Z,31.45
2023-05-21T19:01:52.817Z,33.65
2023-05-21T19:07:16.155Z,32.72
2023-05-21T19:12:39.721Z,27.48
2023-05-21T19:18:02.049Z,20.27
2023-05-21T19:23:25.194Z,20.50
2023-05-21T19:28:48.116Z,19.10
2023-05-21T19:34:11.042Z,15.02
2023-05-21T19:39:43.050Z,14.45
2023-05-21T19:45:07.149Z,16.08
2023-05-21T19:50:29.233Z,18.77
2023-05-21T19:55:51.360Z,13.75
2023-05-21T20:01:16.656Z,19.60
2023-05-21T20:06:39.137Z,14.63
2023-05-21T20:12:01.069Z,14.05
2023-05-21T20:17:22.896Z,13.50
2023-05-21T20:22:44.818Z,21.63
2023-05-21T20:28:08.495Z,24.60
2023-05-21T20:33:34.597Z,21.77
2023-05-21T20:38:57.441Z,14.48
2023-05-21T20:44:19.410Z,16.13
2023-05-21T20:49:41.266Z,13.27
2023-05-21T20:55:04.682Z,19.80
2023-05-21T21:00:27.097Z,26.20
2023-05-21T21:05:49.088Z,17.63
2023-05-21T21:11:11.187Z,17.35
2023-05-21T21:16:33.111Z,14.10
2023-05-21T21:21:55.060Z,15.07
2023-05-21T21:27:16.926Z,13.63
2023-05-21T21:32:41.992Z,14.65
2023-05-21T21:38:05.194Z,10.95
2023-05-21T21:43:27.149Z,14.18
2023-05-21T21:48:48.978Z,18.63
2023-05-21T21:54:11.487Z,10.88
2023-05-21T21:59:34.136Z,16.73
2023-05-21T22:04:56.074Z,13.63
2023-05-21T22:10:18.647Z,11.32
2023-05-21T22:15:40.659Z,11.45
2023-05-21T22:21:02.824Z,8.45
2023-05-21T22:26:24.746Z,11.05
2023-05-21T22:31:46.671Z,9.45
2023-05-21T22:37:08.548Z,19.67
2023-05-21T22:42:30.714Z,7.15
2023-05-21T22:47:52.602Z,12.88
2023-05-21T22:53:14.488Z,12.77
2023-05-21T22:58:37.012Z,10.15
2023-05-21T23:03:58.785Z,7.80
2023-05-21T23:09:20.739Z,9.20
2023-05-21T23:14:42.548Z,11.07
2023-05-21T23:20:05.243Z,9.48
2023-05-21T23:25:27.057Z,8.57
2023-05-21T23:30:48.976Z,9.23
2023-05-21T23:36:10.824Z,7.13
2023-05-21T23:41:32.692Z,8.80
2023-05-21T23:46:54.584Z,12.05
2023-05-21T23:52:18.553Z,8.88
2023-05-21T23:57:41.292Z,8.48
